createdAt,value
2023-05-05T11:05:24.811Z,10.30
2023-05-05T11:07:55.034Z,10.63
2023-05-05T11:10:23.863Z,12.48
2023-05-05T11:13:23.110Z,12.82
2023-05-05T11:15:55.496Z,11.50
2023-05-05T11:18:45.079Z,12.07
2023-05-05T11:21:19.077Z,11.45
2023-05-05T11:23:52.723Z,9.85
2023-05-05T11:26:52.230Z,10.25
2023-05-05T11:29:21.002Z,11.68
2023-05-05T11:32:16.266Z,10.43
2023-05-05T11:34:51.666Z,9.05
2023-05-05T11:37:24.782Z,8.70
2023-05-05T11:40:08.961Z,10.57
2023-05-05T11:42:40.611Z,11.13
2023-05-05T11:45:25.142Z,14.32
2023-05-05T11:47:53.641Z,11.50
2023-05-05T11:50:27.311Z,10.20
2023-05-05T11:52:58.523Z,12.05
2023-05-05T11:55:34.423Z,11.65
2023-05-05T11:58:19.941Z,11.35
2023-05-05T12:00:51.576Z,11.18
2023-05-05T12:03:20.146Z,11.48
2023-05-05T12:05:49.016Z,8.77
2023-05-05T12:08:21.190Z,12.15
2023-05-05T12:10:53.122Z,10.73
2023-05-05T12:13:25.837Z,12.85
2023-05-05T12:15:57.204Z,12.52
2023-05-05T12:18:25.760Z,12.02
2023-05-05T12:20:56.660Z,11.38
2023-05-05T12:23:30.406Z,9.35
2023-05-05T12:28:45.300Z,11.13
2023-05-05T12:31:13.917Z,12.98
2023-05-05T12:33:43.668Z,15.18
2023-05-05T12:36:12.229Z,9.45
2023-05-05T12:38:43.056Z,10.68
2023-05-05T12:41:18.947Z,9.80
2023-05-05T12:43:49.114Z,11.68
2023-05-05T12:46:18.911Z,9.63
2023-05-05T12:49:00.410Z,10.70
2023-05-05T12:51:41.482Z,11.95
2023-05-05T12:54:13.500Z,9.60
2023-05-05T12:56:44.346Z,9.77
2023-05-05T12:59:32.580Z,9.98
2023-05-05T13:02:05.960Z,12.82
2023-05-05T13:04:51.485Z,11.13
2023-05-05T13:07:23.258Z,9.05
2023-05-05T13:10:07.133Z,14.13
2023-05-05T13:12:38.890Z,16.85
2023-05-05T13:17:41.631Z,14.52
2023-05-05T13:20:16.683Z,11.52
2023-05-05T13:22:47.074Z,10.80
2023-05-05T13:25:19.167Z,10.45
2023-05-05T13:30:20.898Z,10.65
2023-05-05T13:32:58.839Z,10.65
2023-05-05T13:35:36.913Z,11.05
2023-05-05T13:38:08.832Z,12.60
2023-05-05T13:40:48.216Z,9.85
2023-05-05T13:43:21.608Z,14.57
2023-05-05T13:46:12.228Z,15.55
2023-05-05T13:48:49.400Z,10.60
2023-05-05T13:51:20.036Z,10.00
2023-05-05T13:53:53.977Z,12.70
2023-05-05T13:56:29.576Z,10.43
2023-05-05T13:58:58.942Z,13.57
2023-05-05T14:01:29.178Z,11.52
2023-05-05T14:03:59.456Z,14.52
2023-05-05T14:06:30.641Z,10.80
2023-05-05T14:09:01.693Z,9.98
2023-05-05T14:11:39.241Z,10.63
2023-05-05T14:14:09.538Z,11.65
2023-05-05T14:16:39.792Z,9.57
2023-05-05T14:19:08.444Z,11.18
2023-05-05T14:21:42.644Z,10.57
2023-05-05T14:24:12.216Z,9.40
2023-05-05T14:26:42.240Z,11.15
2023-05-05T14:29:13.295Z,11.13
2023-05-05T14:31:46.391Z,11.40
2023-05-05T14:34:17.473Z,9.57
2023-05-05T14:36:49.287Z,11.38
2023-05-05T14:41:52.361Z,10.35
2023-05-05T14:44:24.129Z,10.95
2023-05-05T14:46:58.175Z,10.40
2023-05-05T14:49:27.915Z,10.52
2023-05-05T14:52:02.380Z,12.35
2023-05-05T14:54:33.550Z,13.57
2023-05-05T14:57:06.904Z,9.77
2023-05-05T14:59:38.292Z,12.43
2023-05-05T15:02:09.372Z,9.85
2023-05-05T15:04:40.153Z,10.38
2023-05-05T15:07:11.441Z,11.30
2023-05-05T15:09:40.833Z,11.75
2023-05-05T15:12:11.958Z,10.55
2023-05-05T15:14:41.441Z,10.77
2023-05-05T15:17:10.335Z,12.52
2023-05-05T15:19:40.206Z,12.15
2023-05-05T15:22:08.366Z,11.85
2023-05-05T15:24:41.868Z,10.90
2023-05-05T15:27:12.659Z,11.15
2023-05-05T15:29:42.454Z,10.48
2023-05-05T15:32:14.878Z,10.35
2023-05-05T15:34:49.605Z,11.88
2023-05-05T15:37:20.588Z,9.40
2023-05-05T15:39:55.651Z,14.05
2023-05-05T15:42:28.364Z,15.65
2023-05-05T15:44:56.661Z,12.77
2023-05-05T15:47:26.832Z,12.70
2023-05-05T15:49:58.282Z,11.32
2023-05-05T15:52:28.898Z,12.90
2023-05-05T15:55:01.900Z,10.60
2023-05-05T15:57:39.298Z,12.70
2023-05-05T16:00:10.854Z,12.35
2023-05-05T16:02:42.269Z,11.00
2023-05-05T16:05:11.428Z,17.08
2023-05-05T16:07:41.121Z,9.65
2023-05-05T16:10:12.538Z,11.88
2023-05-05T16:12:43.601Z,16.15
2023-05-05T16:15:14.232Z,14.75
2023-05-05T16:17:46.541Z,12.52
2023-05-05T16:20:16.134Z,12.13
2023-05-05T16:22:46.272Z,12.77
2023-05-05T16:25:18.423Z,9.70
2023-05-05T16:27:49.830Z,13.10
2023-05-05T16:30:20.664Z,13.30
2023-05-05T16:32:52.311Z,14.97
2023-05-05T16:37:58.292Z,13.30
2023-05-05T16:40:30.028Z,12.02
2023-05-05T16:43:03.034Z,12.88
2023-05-05T16:45:42.397Z,12.80
2023-05-05T16:48:15.181Z,12.15
2023-05-05T16:50:47.997Z,9.98
2023-05-05T16:53:22.262Z,11.73
2023-05-05T16:55:52.474Z,11.93
2023-05-05T16:58:26.887Z,13.27
2023-05-05T17:00:57.561Z,12.27
2023-05-05T17:03:27.118Z,10.68
2023-05-05T17:05:59.539Z,13.45
2023-05-05T17:08:30.116Z,14.57
2023-05-05T17:11:06.728Z,13.52
2023-05-05T17:13:40.156Z,12.20
2023-05-05T17:16:11.526Z,10.82
2023-05-05T17:18:39.903Z,9.93
2023-05-05T17:21:12.053Z,11.55
2023-05-05T17:23:40.518Z,13.27
2023-05-05T17:26:09.114Z,15.15
2023-05-05T17:28:42.140Z,12.07
2023-05-05T17:31:11.488Z,11.95
2023-05-05T17:33:41.592Z,9.57
2023-05-05T17:36:11.642Z,17.15
2023-05-05T17:38:44.688Z,9.93
2023-05-05T17:41:15.206Z,11.60
2023-05-05T17:43:46.181Z,10.70
2023-05-05T17:46:16.275Z,12.63
2023-05-05T17:48:49.219Z,13.25
2023-05-05T17:51:19.268Z,11.63
2023-05-05T17:53:48.437Z,12.75
2023-05-05T17:56:20.999Z,14.13
2023-05-05T17:58:53.060Z,11.95
2023-05-05T18:01:27.913Z,14.18
2023-05-05T18:04:01.836Z,13.57
2023-05-05T18:06:32.545Z,11.55
2023-05-05T18:11:40.611Z,24.83
2023-05-05T18:14:15.395Z,11.55
2023-05-05T18:16:49.865Z,14.10
2023-05-05T18:19:22.139Z,14.32
2023-05-05T18:21:57.224Z,13.50
2023-05-05T18:24:31.285Z,16.33
2023-05-05T18:27:01.104Z,14.65
2023-05-05T18:29:35.166Z,16.05
2023-05-05T18:32:09.749Z,13.15
2023-05-05T18:34:38.612Z,14.98
2023-05-05T18:37:08.574Z,14.45
2023-05-05T18:39:43.805Z,13.63
2023-05-05T18:42:13.936Z,16.92
2023-05-05T18:44:46.255Z,15.25
2023-05-05T18:47:16.629Z,20.80
2023-05-05T18:49:45.468Z,24.77
2023-05-05T18:52:17.942Z,18.23
2023-05-05T18:54:50.934Z,21.83
2023-05-05T18:57:20.931Z,22.23
2023-05-05T18:59:53.947Z,17.42
2023-05-05T19:02:25.213Z,20.85
2023-05-05T19:04:56.715Z,18.23
2023-05-05T19:07:35.434Z,15.82
2023-05-05T19:10:11.554Z,18.85
2023-05-05T19:12:43.364Z,19.15
2023-05-05T19:15:15.972Z,15.98
2023-05-05T19:17:44.281Z,19.67
2023-05-05T19:20:15.787Z,22.90
2023-05-05T19:22:46.062Z,21.33
2023-05-05T19:25:16.681Z,22.13
2023-05-05T19:27:45.681Z,22.23
2023-05-05T19:30:16.673Z,18.27
2023-05-05T19:32:49.547Z,21.70
2023-05-05T19:35:23.441Z,20.67
2023-05-05T19:38:02.174Z,19.70
2023-05-05T19:40:33.177Z,22.67
2023-05-05T19:43:04.588Z,24.80
2023-05-05T19:45:38.455Z,19.08
2023-05-05T19:48:09.347Z,19.35
2023-05-05T19:50:39.864Z,20.88
2023-05-05T19:53:08.039Z,21.85
2023-05-05T19:55:36.245Z,19.45
2023-05-05T19:58:10.216Z,21.00
2023-05-05T20:00:43.110Z,23.33
2023-05-05T20:03:13.198Z,24.60
2023-05-05T20:05:43.461Z,20.05
2023-05-05T20:08:14.807Z,21.27
2023-05-05T20:10:45.910Z,20.85
2023-05-05T20:13:14.195Z,19.93
2023-05-05T20:15:44.432Z,18.45
2023-05-05T20:18:16.413Z,17.52
2023-05-05T20:20:46.604Z,18.42
2023-05-05T20:23:17.039Z,19.95
2023-05-05T20:25:48.050Z,18.98
2023-05-05T20:28:20.400Z,19.33
2023-05-05T20:30:53.055Z,19.88
2023-05-05T20:33:21.654Z,18.02
2023-05-05T20:35:49.983Z,25.30
2023-05-05T20:38:20.842Z,22.85
2023-05-05T20:40:49.260Z,25.52
2023-05-05T20:43:19.234Z,19.58
2023-05-05T20:45:57.132Z,26.83
2023-05-05T20:48:30.631Z,21.13
2023-05-05T20:50:59.613Z,21.50
2023-05-05T20:53:29.906Z,27.83
2023-05-05T20:55:58.715Z,24.15
2023-05-05T20:58:27.569Z,23.67
2023-05-05T21:00:59.403Z,21.27
2023-05-05T21:03:29.180Z,25.73
2023-05-05T21:06:03.455Z,21.10
2023-05-05T21:08:39.503Z,20.20
2023-05-05T21:11:11.907Z,24.40
2023-05-05T21:13:45.878Z,23.27
2023-05-05T21:16:20.752Z,24.02
2023-05-05T21:18:49.072Z,22.60
2023-05-05T21:21:19.342Z,24.98
2023-05-05T21:23:50.782Z,22.23
2023-05-05T21:26:21.290Z,23.23
2023-05-05T21:28:53.726Z,27.65
2023-05-05T21:31:23.848Z,23.73
2023-05-05T21:33:54.383Z,24.67
2023-05-05T21:36:23.161Z,22.33
2023-05-05T21:38:55.680Z,21.75
2023-05-05T21:41:27.090Z,21.88
2023-05-05T21:44:00.852Z,19.67
2023-05-05T21:46:32.721Z,27.10
2023-05-05T21:51:48.952Z,27.83
2023-05-05T21:54:20.484Z,25.70
2023-05-05T21:56:51.669Z,25.23
2023-05-05T21:59:21.466Z,22.35
2023-05-05T22:01:51.873Z,20.63
2023-05-05T22:04:22.480Z,21.55
2023-05-05T22:06:56.626Z,22.83
2023-05-05T22:09:26.692Z,20.35
2023-05-05T22:11:58.181Z,19.27
2023-05-05T22:14:28.095Z,20.55
2023-05-05T22:16:59.846Z,21.90
2023-05-05T22:19:34.456Z,21.90
2023-05-05T22:22:05.998Z,22.17
2023-05-05T22:24:39.991Z,21.33
2023-05-05T22:27:11.332Z,22.45
2023-05-05T22:29:42.636Z,27.45
2023-05-05T22:32:15.988Z,18.85
2023-05-05T22:34:45.839Z,20.50
2023-05-05T22:37:19.861Z,21.00
2023-05-05T22:39:50.407Z,18.67
2023-05-05T22:42:22.011Z,24.73
2023-05-05T22:44:50.194Z,23.98
2023-05-05T22:47:20.538Z,19.50
2023-05-05T22:49:49.624Z,21.52
2023-05-05T22:52:17.967Z,18.55
2023-05-05T22:54:49.750Z,20.00
2023-05-05T22:57:19.987Z,18.98
2023-05-05T22:59:52.867Z,22.90
2023-05-05T23:02:26.818Z,18.83
2023-05-05T23:05:02.289Z,19.15
2023-05-05T23:07:33.215Z,24.33
2023-05-05T23:10:03.311Z,21.38
2023-05-05T23:12:33.666Z,23.65
2023-05-05T23:15:08.236Z,23.30
2023-05-05T23:17:45.469Z,24.00
2023-05-05T23:20:15.266Z,24.38
2023-05-05T23:22:45.149Z,27.20
2023-05-05T23:25:16.171Z,22.77
2023-05-05T23:27:47.761Z,20.10
2023-05-05T23:30:18.460Z,26.13
2023-05-05T23:32:54.394Z,19.65
2023-05-05T23:35:24.818Z,20.27
2023-05-05T23:37:57.770Z,21.30
2023-05-05T23:40:29.431Z,21.30
2023-05-05T23:42:58.992Z,19.90
2023-05-05T23:45:27.888Z,20.95
2023-05-05T23:47:58.186Z,20.55
2023-05-05T23:50:27.807Z,24.50
2023-05-05T23:53:01.487Z,24.92
2023-05-05T23:55:31.335Z,22.23
2023-05-05T23:58:07.805Z,25.52
